Pagrindinis puslapis
METAR-TAF:

METAR-TAF

Oro uostai :

Kosraė, Mikronezija

platuma: 05-21N, ilguma: 162-57E, Aukštis: 3 m

METAR: trūkstamas

Laikas: 13:16 (02:16 UTC)

Prognozė

Ataskaita buvo paskelbta 2 valandos ir 38 minutes, ne 23:38 UTC
Prognozė galioja nuo 18 metu 00 UTC su 18 metu 24 UTC
Vėjas 11 kt iš Rytų
Matomumas: 10 km
Su prošvaistėmis ne aukštis 1700 ft
Apsiniaukę ne aukštis 12000 ft
lietus, Liūtis kaimynystėje
Laikinai
nuo 18 metu 02 UTC su 18 metu 06 UTC
Vėjas 11 kt iš Rytų su gūsio iki 22 kt
Matomumas: 6.4 km
Su prošvaistėmis ne aukštis 1600 ft
lietus
Nuo 18 metu 0600 UTC
Vėjas 11 kt iš Rytų
Matomumas: 10 km
Išsisklaidę debesys ne aukštis 1800 ft
Su prošvaistėmis ne aukštis 13000 ft
Liūtis kaimynystėje

TAF: PTSA 172338Z 1800/1824 10011KT P6SM -SHRA VCSH BKN017 OVC120 TEMPO 1802/1806 10011G22KT 4SM SHRA BKN016 FM180600 09011KT P6SM VCSH SCT018 BKN130

Orai ataskaitas ir orų prognozės (METAR, TAF).

turimą stotys yra geltonos ir raudonos taškus žemėlapyje.

Perkelti pele per norėdami pamatyti stoties vardą.

Tada spustelėkite, norėdami matyti oro stebėjimo ir prognozės.

Norėdami pakeisti žemėlapį: spustelėkite ant žalios mygtukų su juodo kryžiaus žemyn,; žalią mygtuką su brūkšneliu, jei norite nutolinti; arba žalių rodyklių gretimoms žemėlapius.


METAR-TAF: